Terminal Aerodrome Forecast
Issued by NWS

Home | Current Version | Previous Version | Text Only | Print | Product List | Glossary On
Versions: 1 2 3 4 5 6 7 8 9 10 11 12 13 14
000
FTUS45 KTFX 302300
TAFCTB
TAF
KCTB 302338Z 3100/3124 13005KT P6SM SCT180
     FM310700 31010KT P6SM SCT070 BKN150
     FM311200 35015G30KT 1SM -SN OVC012
     FM311500 36015G28KT 2SM -SN OVC012
     FM312100 35010G20KT 6SM -SN OVC025=

USA.gov is the U.S. government's official web portal to all federal, state and local government web resources and services.